sensor_id;sensor_type;location;lat;lon;timestamp;P1;durP1;ratioP1;P2;durP2;ratioP2
76939;SDS011;65885;55.848;35.916;2023-09-18T00:00:49;4.47;;;2.90;;
76939;SDS011;65885;55.848;35.916;2023-09-18T00:03:17;3.47;;;2.65;;
76939;SDS011;65885;55.848;35.916;2023-09-18T00:05:47;2.72;;;1.95;;
76939;SDS011;65885;55.848;35.916;2023-09-18T00:08:15;4.05;;;2.90;;
76939;SDS011;65885;55.848;35.916;2023-09-18T00:10:42;3.30;;;2.72;;
76939;SDS011;65885;55.848;35.916;2023-09-18T00:13:14;3.17;;;2.67;;
76939;SDS011;65885;55.848;35.916;2023-09-18T00:15:42;4.07;;;2.30;;
76939;SDS011;65885;55.848;35.916;2023-09-18T00:18:10;4.57;;;2.47;;
76939;SDS011;65885;55.848;35.916;2023-09-18T00:20:37;3.88;;;2.63;;
76939;SDS011;65885;55.848;35.916;2023-09-18T00:23:08;4.13;;;2.92;;
76939;SDS011;65885;55.848;35.916;2023-09-18T00:25:36;3.55;;;2.30;;
76939;SDS011;65885;55.848;35.916;2023-09-18T00:28:06;3.85;;;2.65;;
76939;SDS011;65885;55.848;35.916;2023-09-18T00:34:14;3.78;;;2.35;;
76939;SDS011;65885;55.848;35.916;2023-09-18T00:36:41;3.05;;;2.70;;
76939;SDS011;65885;55.848;35.916;2023-09-18T00:39:11;3.60;;;2.75;;
76939;SDS011;65885;55.848;35.916;2023-09-18T00:41:39;3.08;;;2.17;;
76939;SDS011;65885;55.848;35.916;2023-09-18T00:44:08;4.22;;;2.33;;
76939;SDS011;65885;55.848;35.916;2023-09-18T00:46:35;3.70;;;2.83;;
76939;SDS011;65885;55.848;35.916;2023-09-18T00:49:03;3.30;;;2.40;;
76939;SDS011;65885;55.848;35.916;2023-09-18T00:51:30;3.08;;;2.40;;
76939;SDS011;65885;55.848;35.916;2023-09-18T00:53:59;3.03;;;2.65;;
76939;SDS011;65885;55.848;35.916;2023-09-18T00:56:28;3.60;;;2.30;;
76939;SDS011;65885;55.848;35.916;2023-09-18T00:58:55;3.03;;;1.90;;
76939;SDS011;65885;55.848;35.916;2023-09-18T01:01:22;4.18;;;2.05;;
76939;SDS011;65885;55.848;35.916;2023-09-18T01:03:50;3.25;;;1.92;;
76939;SDS011;65885;55.848;35.916;2023-09-18T01:06:19;3.42;;;2.30;;
76939;SDS011;65885;55.848;35.916;2023-09-18T01:08:47;3.15;;;2.50;;
76939;SDS011;65885;55.848;35.916;2023-09-18T01:11:19;3.50;;;3.00;;
76939;SDS011;65885;55.848;35.916;2023-09-18T01:13:58;3.28;;;2.70;;
76939;SDS011;65885;55.848;35.916;2023-09-18T01:16:34;3.80;;;2.50;;
76939;SDS011;65885;55.848;35.916;2023-09-18T01:19:06;2.45;;;2.20;;
76939;SDS011;65885;55.848;35.916;2023-09-18T01:21:33;3.95;;;2.35;;
76939;SDS011;65885;55.848;35.916;2023-09-18T01:24:02;3.65;;;2.67;;
76939;SDS011;65885;55.848;35.916;2023-09-18T01:26:30;2.70;;;2.50;;
76939;SDS011;65885;55.848;35.916;2023-09-18T01:28:58;2.88;;;2.40;;
76939;SDS011;65885;55.848;35.916;2023-09-18T01:31:25;3.53;;;2.60;;
76939;SDS011;65885;55.848;35.916;2023-09-18T01:33:52;3.22;;;2.50;;
76939;SDS011;65885;55.848;35.916;2023-09-18T01:36:22;3.15;;;2.83;;
76939;SDS011;65885;55.848;35.916;2023-09-18T01:38:51;2.78;;;2.00;;
76939;SDS011;65885;55.848;35.916;2023-09-18T01:41:20;2.75;;;1.88;;
76939;SDS011;65885;55.848;35.916;2023-09-18T01:43:48;3.47;;;2.40;;
76939;SDS011;65885;55.848;35.916;2023-09-18T01:46:15;3.88;;;2.83;;
76939;SDS011;65885;55.848;35.916;2023-09-18T01:48:47;4.20;;;2.50;;
76939;SDS011;65885;55.848;35.916;2023-09-18T01:51:14;3.70;;;2.20;;
76939;SDS011;65885;55.848;35.916;2023-09-18T01:53:42;3.72;;;2.92;;
76939;SDS011;65885;55.848;35.916;2023-09-18T01:56:10;3.55;;;2.58;;
76939;SDS011;65885;55.848;35.916;2023-09-18T01:58:38;2.70;;;2.50;;
76939;SDS011;65885;55.848;35.916;2023-09-18T02:01:06;3.08;;;2.25;;
76939;SDS011;65885;55.848;35.916;2023-09-18T02:03:33;4.45;;;2.47;;
76939;SDS011;65885;55.848;35.916;2023-09-18T02:06:01;3.13;;;2.50;;
76939;SDS011;65885;55.848;35.916;2023-09-18T02:08:28;4.47;;;2.88;;
76939;SDS011;65885;55.848;35.916;2023-09-18T02:10:56;4.32;;;2.67;;
76939;SDS011;65885;55.848;35.916;2023-09-18T02:13:23;3.40;;;2.35;;
76939;SDS011;65885;55.848;35.916;2023-09-18T02:15:52;2.67;;;2.25;;
76939;SDS011;65885;55.848;35.916;2023-09-18T02:18:20;3.35;;;2.35;;
76939;SDS011;65885;55.848;35.916;2023-09-18T02:20:48;2.60;;;2.35;;
76939;SDS011;65885;55.848;35.916;2023-09-18T02:23:15;3.25;;;2.47;;
76939;SDS011;65885;55.848;35.916;2023-09-18T02:26:03;3.58;;;2.40;;
76939;SDS011;65885;55.848;35.916;2023-09-18T02:28:31;3.75;;;2.47;;
76939;SDS011;65885;55.848;35.916;2023-09-18T02:31:00;3.78;;;2.63;;
76939;SDS011;65885;55.848;35.916;2023-09-18T02:33:28;3.08;;;2.25;;
76939;SDS011;65885;55.848;35.916;2023-09-18T02:35:55;4.28;;;2.28;;
76939;SDS011;65885;55.848;35.916;2023-09-18T02:38:22;4.47;;;2.47;;
76939;SDS011;65885;55.848;35.916;2023-09-18T02:40:50;3.58;;;2.75;;
76939;SDS011;65885;55.848;35.916;2023-09-18T02:43:18;4.93;;;3.08;;
76939;SDS011;65885;55.848;35.916;2023-09-18T02:45:45;4.82;;;3.40;;
76939;SDS011;65885;55.848;35.916;2023-09-18T02:48:14;2.85;;;2.50;;
76939;SDS011;65885;55.848;35.916;2023-09-18T02:50:42;3.20;;;2.50;;
76939;SDS011;65885;55.848;35.916;2023-09-18T02:53:12;3.60;;;2.10;;
76939;SDS011;65885;55.848;35.916;2023-09-18T02:55:44;3.53;;;2.60;;
76939;SDS011;65885;55.848;35.916;2023-09-18T02:58:12;3.65;;;2.30;;
76939;SDS011;65885;55.848;35.916;2023-09-18T03:00:40;2.97;;;2.47;;
76939;SDS011;65885;55.848;35.916;2023-09-18T03:03:09;3.15;;;2.33;;
76939;SDS011;65885;55.848;35.916;2023-09-18T03:05:38;3.42;;;2.42;;
76939;SDS011;65885;55.848;35.916;2023-09-18T03:08:06;3.78;;;2.55;;
76939;SDS011;65885;55.848;35.916;2023-09-18T03:10:33;4.30;;;2.67;;
76939;SDS011;65885;55.848;35.916;2023-09-18T03:13:01;4.43;;;2.85;;
76939;SDS011;65885;55.848;35.916;2023-09-18T03:15:30;3.67;;;2.42;;
76939;SDS011;65885;55.848;35.916;2023-09-18T03:17:58;3.60;;;2.50;;
76939;SDS011;65885;55.848;35.916;2023-09-18T03:20:26;2.70;;;2.22;;
76939;SDS011;65885;55.848;35.916;2023-09-18T03:22:57;3.83;;;2.22;;
76939;SDS011;65885;55.848;35.916;2023-09-18T03:25:26;3.53;;;2.63;;
76939;SDS011;65885;55.848;35.916;2023-09-18T03:27:55;5.18;;;3.00;;
76939;SDS011;65885;55.848;35.916;2023-09-18T03:30:23;6.13;;;3.75;;
76939;SDS011;65885;55.848;35.916;2023-09-18T03:32:51;7.25;;;4.18;;
76939;SDS011;65885;55.848;35.916;2023-09-18T03:35:19;4.93;;;3.97;;
76939;SDS011;65885;55.848;35.916;2023-09-18T03:37:48;6.70;;;4.00;;
76939;SDS011;65885;55.848;35.916;2023-09-18T03:40:19;6.00;;;3.90;;
76939;SDS011;65885;55.848;35.916;2023-09-18T03:42:47;6.90;;;3.97;;
76939;SDS011;65885;55.848;35.916;2023-09-18T03:45:15;5.32;;;3.67;;
76939;SDS011;65885;55.848;35.916;2023-09-18T03:47:44;5.30;;;3.30;;
76939;SDS011;65885;55.848;35.916;2023-09-18T03:50:11;4.80;;;3.10;;
76939;SDS011;65885;55.848;35.916;2023-09-18T03:52:39;3.50;;;2.60;;
76939;SDS011;65885;55.848;35.916;2023-09-18T03:55:08;4.10;;;2.70;;
76939;SDS011;65885;55.848;35.916;2023-09-18T03:57:38;4.22;;;2.88;;
76939;SDS011;65885;55.848;35.916;2023-09-18T04:00:06;3.65;;;2.90;;
76939;SDS011;65885;55.848;35.916;2023-09-18T04:02:34;3.65;;;2.80;;
76939;SDS011;65885;55.848;35.916;2023-09-18T04:05:02;4.95;;;2.95;;
76939;SDS011;65885;55.848;35.916;2023-09-18T04:07:30;4.13;;;2.83;;
76939;SDS011;65885;55.848;35.916;2023-09-18T04:09:58;4.95;;;3.15;;
76939;SDS011;65885;55.848;35.916;2023-09-18T04:12:25;3.75;;;2.72;;
76939;SDS011;65885;55.848;35.916;2023-09-18T04:14:54;4.32;;;2.85;;
76939;SDS011;65885;55.848;35.916;2023-09-18T04:17:21;4.72;;;2.65;;
76939;SDS011;65885;55.848;35.916;2023-09-18T04:19:49;3.72;;;2.85;;
76939;SDS011;65885;55.848;35.916;2023-09-18T04:22:16;4.57;;;3.03;;
76939;SDS011;65885;55.848;35.916;2023-09-18T04:24:44;3.72;;;2.80;;
76939;SDS011;65885;55.848;35.916;2023-09-18T04:27:11;3.97;;;2.70;;
76939;SDS011;65885;55.848;35.916;2023-09-18T04:29:38;3.58;;;2.70;;
76939;SDS011;65885;55.848;35.916;2023-09-18T04:32:07;4.03;;;2.83;;
76939;SDS011;65885;55.848;35.916;2023-09-18T04:34:34;6.25;;;2.70;;
76939;SDS011;65885;55.848;35.916;2023-09-18T04:37:02;4.13;;;2.60;;
76939;SDS011;65885;55.848;35.916;2023-09-18T04:39:30;3.97;;;2.83;;
76939;SDS011;65885;55.848;35.916;2023-09-18T04:42:00;2.97;;;2.63;;
76939;SDS011;65885;55.848;35.916;2023-09-18T04:44:30;3.63;;;2.65;;
76939;SDS011;65885;55.848;35.916;2023-09-18T04:46:57;2.95;;;2.53;;
76939;SDS011;65885;55.848;35.916;2023-09-18T04:49:26;3.42;;;2.53;;
76939;SDS011;65885;55.848;35.916;2023-09-18T04:51:54;3.25;;;2.45;;
76939;SDS011;65885;55.848;35.916;2023-09-18T04:54:22;2.88;;;2.13;;
76939;SDS011;65885;55.848;35.916;2023-09-18T04:56:49;3.90;;;2.85;;
76939;SDS011;65885;55.848;35.916;2023-09-18T04:59:17;2.95;;;2.50;;
76939;SDS011;65885;55.848;35.916;2023-09-18T05:01:44;3.55;;;2.95;;
76939;SDS011;65885;55.848;35.916;2023-09-18T05:04:12;4.45;;;3.03;;
76939;SDS011;65885;55.848;35.916;2023-09-18T05:06:43;3.78;;;2.47;;
76939;SDS011;65885;55.848;35.916;2023-09-18T05:09:10;3.38;;;2.45;;
76939;SDS011;65885;55.848;35.916;2023-09-18T05:11:37;3.45;;;2.90;;
76939;SDS011;65885;55.848;35.916;2023-09-18T05:14:07;4.78;;;2.78;;
76939;SDS011;65885;55.848;35.916;2023-09-18T05:16:34;4.07;;;3.00;;
76939;SDS011;65885;55.848;35.916;2023-09-18T05:19:02;3.50;;;2.40;;
76939;SDS011;65885;55.848;35.916;2023-09-18T05:21:29;3.80;;;2.55;;
76939;SDS011;65885;55.848;35.916;2023-09-18T05:23:58;3.70;;;2.92;;
76939;SDS011;65885;55.848;35.916;2023-09-18T05:26:25;5.05;;;2.97;;
76939;SDS011;65885;55.848;35.916;2023-09-18T05:28:54;3.92;;;3.22;;
76939;SDS011;65885;55.848;35.916;2023-09-18T05:31:21;2.80;;;2.30;;
76939;SDS011;65885;55.848;35.916;2023-09-18T05:33:49;3.95;;;2.38;;
76939;SDS011;65885;55.848;35.916;2023-09-18T05:36:17;3.90;;;3.20;;
76939;SDS011;65885;55.848;35.916;2023-09-18T05:38:45;3.67;;;2.95;;
76939;SDS011;65885;55.848;35.916;2023-09-18T05:41:14;5.22;;;4.03;;
76939;SDS011;65885;55.848;35.916;2023-09-18T05:43:42;4.45;;;3.20;;
76939;SDS011;65885;55.848;35.916;2023-09-18T05:46:10;5.30;;;3.65;;
76939;SDS011;65885;55.848;35.916;2023-09-18T05:48:37;3.65;;;3.03;;
76939;SDS011;65885;55.848;35.916;2023-09-18T05:51:04;5.05;;;3.55;;
76939;SDS011;65885;55.848;35.916;2023-09-18T05:53:32;4.57;;;3.30;;
76939;SDS011;65885;55.848;35.916;2023-09-18T05:56:00;4.57;;;3.17;;
76939;SDS011;65885;55.848;35.916;2023-09-18T05:58:31;5.05;;;3.90;;
76939;SDS011;65885;55.848;35.916;2023-09-18T06:01:00;3.92;;;3.10;;
76939;SDS011;65885;55.848;35.916;2023-09-18T06:03:28;5.70;;;3.60;;
76939;SDS011;65885;55.848;35.916;2023-09-18T06:06:00;5.35;;;3.00;;
76939;SDS011;65885;55.848;35.916;2023-09-18T06:08:28;5.43;;;3.35;;
76939;SDS011;65885;55.848;35.916;2023-09-18T06:10:56;4.60;;;3.58;;
76939;SDS011;65885;55.848;35.916;2023-09-18T06:13:23;4.03;;;3.03;;
76939;SDS011;65885;55.848;35.916;2023-09-18T06:15:53;4.82;;;3.30;;
76939;SDS011;65885;55.848;35.916;2023-09-18T06:18:22;5.40;;;3.30;;
76939;SDS011;65885;55.848;35.916;2023-09-18T06:20:50;5.32;;;3.95;;
76939;SDS011;65885;55.848;35.916;2023-09-18T06:23:17;4.50;;;3.33;;
76939;SDS011;65885;55.848;35.916;2023-09-18T06:25:44;4.50;;;3.47;;
76939;SDS011;65885;55.848;35.916;2023-09-18T06:28:12;5.07;;;3.90;;
76939;SDS011;65885;55.848;35.916;2023-09-18T06:30:40;4.97;;;3.92;;
76939;SDS011;65885;55.848;35.916;2023-09-18T06:33:09;5.43;;;3.45;;
76939;SDS011;65885;55.848;35.916;2023-09-18T06:35:37;4.22;;;3.38;;
76939;SDS011;65885;55.848;35.916;2023-09-18T06:38:05;4.75;;;3.22;;
76939;SDS011;65885;55.848;35.916;2023-09-18T06:40:32;5.28;;;3.13;;
76939;SDS011;65885;55.848;35.916;2023-09-18T06:43:00;5.13;;;3.60;;
76939;SDS011;65885;55.848;35.916;2023-09-18T06:45:27;4.40;;;3.17;;
76939;SDS011;65885;55.848;35.916;2023-09-18T06:47:54;4.28;;;3.40;;
76939;SDS011;65885;55.848;35.916;2023-09-18T06:50:23;4.28;;;3.10;;
76939;SDS011;65885;55.848;35.916;2023-09-18T06:52:51;5.03;;;3.22;;
76939;SDS011;65885;55.848;35.916;2023-09-18T06:55:18;4.88;;;3.30;;
76939;SDS011;65885;55.848;35.916;2023-09-18T06:57:46;5.63;;;3.90;;
76939;SDS011;65885;55.848;35.916;2023-09-18T07:00:16;6.10;;;3.70;;
76939;SDS011;65885;55.848;35.916;2023-09-18T07:02:46;4.28;;;3.08;;
76939;SDS011;65885;55.848;35.916;2023-09-18T07:05:14;5.38;;;3.08;;
76939;SDS011;65885;55.848;35.916;2023-09-18T07:07:43;4.18;;;3.30;;
76939;SDS011;65885;55.848;35.916;2023-09-18T07:10:11;5.10;;;3.17;;
76939;SDS011;65885;55.848;35.916;2023-09-18T07:12:39;3.90;;;3.05;;
76939;SDS011;65885;55.848;35.916;2023-09-18T07:15:06;6.45;;;3.55;;
76939;SDS011;65885;55.848;35.916;2023-09-18T07:17:35;4.95;;;3.53;;
76939;SDS011;65885;55.848;35.916;2023-09-18T07:20:03;4.00;;;3.35;;
76939;SDS011;65885;55.848;35.916;2023-09-18T07:22:39;4.07;;;3.08;;
76939;SDS011;65885;55.848;35.916;2023-09-18T07:25:08;3.90;;;3.08;;
76939;SDS011;65885;55.848;35.916;2023-09-18T07:27:36;3.90;;;3.33;;
76939;SDS011;65885;55.848;35.916;2023-09-18T07:30:05;4.43;;;3.25;;
76939;SDS011;65885;55.848;35.916;2023-09-18T07:32:33;5.38;;;3.67;;
76939;SDS011;65885;55.848;35.916;2023-09-18T07:35:01;5.13;;;3.60;;
76939;SDS011;65885;55.848;35.916;2023-09-18T07:37:30;5.80;;;3.67;;
76939;SDS011;65885;55.848;35.916;2023-09-18T07:39:57;4.43;;;3.45;;
76939;SDS011;65885;55.848;35.916;2023-09-18T07:42:27;4.13;;;3.45;;
76939;SDS011;65885;55.848;35.916;2023-09-18T07:44:54;4.43;;;3.22;;
76939;SDS011;65885;55.848;35.916;2023-09-18T07:47:22;4.32;;;3.28;;
76939;SDS011;65885;55.848;35.916;2023-09-18T07:49:50;5.28;;;3.75;;
76939;SDS011;65885;55.848;35.916;2023-09-18T07:52:19;5.45;;;3.92;;
76939;SDS011;65885;55.848;35.916;2023-09-18T07:54:47;6.07;;;3.95;;
76939;SDS011;65885;55.848;35.916;2023-09-18T07:57:15;4.63;;;3.38;;
76939;SDS011;65885;55.848;35.916;2023-09-18T07:59:45;5.28;;;3.35;;
76939;SDS011;65885;55.848;35.916;2023-09-18T08:02:13;5.50;;;3.40;;
76939;SDS011;65885;55.848;35.916;2023-09-18T08:04:43;4.40;;;3.92;;
76939;SDS011;65885;55.848;35.916;2023-09-18T08:07:10;3.90;;;2.95;;
76939;SDS011;65885;55.848;35.916;2023-09-18T08:09:38;4.30;;;3.20;;
76939;SDS011;65885;55.848;35.916;2023-09-18T08:12:06;4.30;;;3.28;;
76939;SDS011;65885;55.848;35.916;2023-09-18T08:14:34;5.55;;;3.85;;
76939;SDS011;65885;55.848;35.916;2023-09-18T08:17:04;5.38;;;3.60;;
76939;SDS011;65885;55.848;35.916;2023-09-18T08:19:33;4.53;;;3.60;;
76939;SDS011;65885;55.848;35.916;2023-09-18T08:22:01;6.75;;;3.70;;
76939;SDS011;65885;55.848;35.916;2023-09-18T08:24:29;4.70;;;3.75;;
76939;SDS011;65885;55.848;35.916;2023-09-18T08:26:57;6.03;;;3.47;;
76939;SDS011;65885;55.848;35.916;2023-09-18T08:29:25;4.57;;;3.45;;
76939;SDS011;65885;55.848;35.916;2023-09-18T08:31:52;5.30;;;3.72;;
76939;SDS011;65885;55.848;35.916;2023-09-18T08:34:21;5.03;;;4.00;;
76939;SDS011;65885;55.848;35.916;2023-09-18T08:36:49;6.22;;;3.80;;
76939;SDS011;65885;55.848;35.916;2023-09-18T08:39:16;5.18;;;4.30;;
76939;SDS011;65885;55.848;35.916;2023-09-18T08:41:43;5.28;;;3.78;;
76939;SDS011;65885;55.848;35.916;2023-09-18T08:44:15;5.57;;;4.00;;
76939;SDS011;65885;55.848;35.916;2023-09-18T08:46:44;5.68;;;3.58;;
76939;SDS011;65885;55.848;35.916;2023-09-18T08:49:12;5.25;;;3.63;;
76939;SDS011;65885;55.848;35.916;2023-09-18T08:51:42;6.30;;;3.47;;
76939;SDS011;65885;55.848;35.916;2023-09-18T08:54:10;5.13;;;3.67;;
76939;SDS011;65885;55.848;35.916;2023-09-18T08:56:38;5.55;;;3.22;;
76939;SDS011;65885;55.848;35.916;2023-09-18T08:59:05;4.07;;;3.20;;
76939;SDS011;65885;55.848;35.916;2023-09-18T09:01:33;4.85;;;3.60;;
76939;SDS011;65885;55.848;35.916;2023-09-18T09:04:00;4.22;;;2.85;;
76939;SDS011;65885;55.848;35.916;2023-09-18T09:06:29;4.45;;;2.90;;
76939;SDS011;65885;55.848;35.916;2023-09-18T09:08:58;4.05;;;3.28;;
76939;SDS011;65885;55.848;35.916;2023-09-18T09:11:26;4.57;;;2.47;;
76939;SDS011;65885;55.848;35.916;2023-09-18T09:14:08;2.53;;;2.08;;
76939;SDS011;65885;55.848;35.916;2023-09-18T09:16:38;3.55;;;2.58;;
76939;SDS011;65885;55.848;35.916;2023-09-18T09:19:06;3.17;;;2.20;;
76939;SDS011;65885;55.848;35.916;2023-09-18T09:21:39;2.65;;;2.13;;
76939;SDS011;65885;55.848;35.916;2023-09-18T09:24:11;2.35;;;1.88;;
76939;SDS011;65885;55.848;35.916;2023-09-18T09:26:39;3.03;;;2.20;;
76939;SDS011;65885;55.848;35.916;2023-09-18T09:29:14;2.28;;;1.95;;
76939;SDS011;65885;55.848;35.916;2023-09-18T09:31:43;2.25;;;1.92;;
76939;SDS011;65885;55.848;35.916;2023-09-18T09:34:12;2.30;;;2.10;;
76939;SDS011;65885;55.848;35.916;2023-09-18T09:36:51;2.22;;;1.85;;
76939;SDS011;65885;55.848;35.916;2023-09-18T09:39:21;1.85;;;1.65;;
76939;SDS011;65885;55.848;35.916;2023-09-18T09:44:17;2.35;;;1.58;;
76939;SDS011;65885;55.848;35.916;2023-09-18T09:46:46;3.05;;;1.95;;
76939;SDS011;65885;55.848;35.916;2023-09-18T09:49:15;1.98;;;1.40;;
76939;SDS011;65885;55.848;35.916;2023-09-18T09:51:43;2.90;;;1.98;;
76939;SDS011;65885;55.848;35.916;2023-09-18T09:54:10;2.25;;;1.52;;
76939;SDS011;65885;55.848;35.916;2023-09-18T09:56:41;1.98;;;1.50;;
76939;SDS011;65885;55.848;35.916;2023-09-18T09:59:11;1.75;;;1.42;;
76939;SDS011;65885;55.848;35.916;2023-09-18T10:01:40;1.77;;;1.45;;
76939;SDS011;65885;55.848;35.916;2023-09-18T10:04:11;1.70;;;1.20;;
76939;SDS011;65885;55.848;35.916;2023-09-18T10:06:43;2.67;;;1.52;;
76939;SDS011;65885;55.848;35.916;2023-09-18T10:09:12;1.75;;;1.45;;
76939;SDS011;65885;55.848;35.916;2023-09-18T10:11:43;1.88;;;1.30;;
76939;SDS011;65885;55.848;35.916;2023-09-18T10:14:14;1.77;;;1.20;;
76939;SDS011;65885;55.848;35.916;2023-09-18T10:16:46;1.80;;;1.40;;
76939;SDS011;65885;55.848;35.916;2023-09-18T10:19:21;1.48;;;1.13;;
76939;SDS011;65885;55.848;35.916;2023-09-18T10:21:57;2.55;;;1.55;;
76939;SDS011;65885;55.848;35.916;2023-09-18T10:24:36;2.17;;;1.58;;
76939;SDS011;65885;55.848;35.916;2023-09-18T10:27:08;1.63;;;1.35;;
76939;SDS011;65885;55.848;35.916;2023-09-18T10:29:40;1.45;;;1.10;;
76939;SDS011;65885;55.848;35.916;2023-09-18T10:34:38;1.38;;;1.13;;
76939;SDS011;65885;55.848;35.916;2023-09-18T10:37:07;1.30;;;1.20;;
76939;SDS011;65885;55.848;35.916;2023-09-18T10:39:37;1.30;;;1.15;;
76939;SDS011;65885;55.848;35.916;2023-09-18T10:42:07;1.73;;;1.40;;
76939;SDS011;65885;55.848;35.916;2023-09-18T10:44:37;2.15;;;1.40;;
76939;SDS011;65885;55.848;35.916;2023-09-18T10:47:06;1.52;;;1.40;;
76939;SDS011;65885;55.848;35.916;2023-09-18T10:49:35;3.63;;;1.38;;
76939;SDS011;65885;55.848;35.916;2023-09-18T10:52:03;1.83;;;1.60;;
76939;SDS011;65885;55.848;35.916;2023-09-18T10:54:31;2.20;;;1.38;;
76939;SDS011;65885;55.848;35.916;2023-09-18T10:57:03;1.77;;;1.25;;
76939;SDS011;65885;55.848;35.916;2023-09-18T10:59:32;1.52;;;1.20;;
76939;SDS011;65885;55.848;35.916;2023-09-18T11:02:02;1.80;;;1.60;;
76939;SDS011;65885;55.848;35.916;2023-09-18T11:04:31;1.77;;;1.17;;
76939;SDS011;65885;55.848;35.916;2023-09-18T11:07:02;1.88;;;1.42;;
76939;SDS011;65885;55.848;35.916;2023-09-18T11:09:40;1.92;;;1.40;;
76939;SDS011;65885;55.848;35.916;2023-09-18T11:12:09;1.25;;;1.13;;
76939;SDS011;65885;55.848;35.916;2023-09-18T11:14:46;1.55;;;1.35;;
76939;SDS011;65885;55.848;35.916;2023-09-18T11:17:34;1.65;;;1.30;;
76939;SDS011;65885;55.848;35.916;2023-09-18T11:20:04;1.98;;;1.45;;
76939;SDS011;65885;55.848;35.916;2023-09-18T11:22:37;1.92;;;1.42;;
76939;SDS011;65885;55.848;35.916;2023-09-18T11:28:04;1.70;;;1.60;;
76939;SDS011;65885;55.848;35.916;2023-09-18T11:30:36;1.70;;;1.50;;
76939;SDS011;65885;55.848;35.916;2023-09-18T11:33:05;2.55;;;1.92;;
76939;SDS011;65885;55.848;35.916;2023-09-18T11:35:34;2.58;;;1.52;;
76939;SDS011;65885;55.848;35.916;2023-09-18T11:38:03;1.73;;;1.38;;
76939;SDS011;65885;55.848;35.916;2023-09-18T11:40:32;2.40;;;1.63;;
76939;SDS011;65885;55.848;35.916;2023-09-18T11:43:20;2.08;;;1.73;;
76939;SDS011;65885;55.848;35.916;2023-09-18T11:45:54;2.03;;;1.50;;
76939;SDS011;65885;55.848;35.916;2023-09-18T11:48:24;1.50;;;1.30;;
76939;SDS011;65885;55.848;35.916;2023-09-18T11:53:23;1.80;;;1.40;;
76939;SDS011;65885;55.848;35.916;2023-09-18T11:55:53;1.52;;;1.42;;
76939;SDS011;65885;55.848;35.916;2023-09-18T11:58:21;1.73;;;1.35;;
76939;SDS011;65885;55.848;35.916;2023-09-18T12:00:50;1.92;;;1.20;;
76939;SDS011;65885;55.848;35.916;2023-09-18T12:03:22;2.10;;;1.20;;
76939;SDS011;65885;55.848;35.916;2023-09-18T12:05:53;1.42;;;1.27;;
76939;SDS011;65885;55.848;35.916;2023-09-18T12:08:22;1.58;;;1.30;;
76939;SDS011;65885;55.848;35.916;2023-09-18T12:10:52;2.00;;;1.27;;
76939;SDS011;65885;55.848;35.916;2023-09-18T12:13:20;1.23;;;0.80;;
76939;SDS011;65885;55.848;35.916;2023-09-18T12:15:48;1.75;;;1.23;;
76939;SDS011;65885;55.848;35.916;2023-09-18T12:18:15;1.65;;;1.35;;
76939;SDS011;65885;55.848;35.916;2023-09-18T12:20:48;1.50;;;1.40;;
76939;SDS011;65885;55.848;35.916;2023-09-18T12:23:16;1.58;;;1.20;;
76939;SDS011;65885;55.848;35.916;2023-09-18T12:25:45;1.73;;;1.05;;
76939;SDS011;65885;55.848;35.916;2023-09-18T12:28:15;1.40;;;1.30;;
76939;SDS011;65885;55.848;35.916;2023-09-18T12:30:42;2.15;;;1.63;;
76939;SDS011;65885;55.848;35.916;2023-09-18T12:33:12;1.42;;;1.20;;
76939;SDS011;65885;55.848;35.916;2023-09-18T12:35:40;1.35;;;1.25;;
76939;SDS011;65885;55.848;35.916;2023-09-18T12:38:15;1.40;;;1.30;;
76939;SDS011;65885;55.848;35.916;2023-09-18T12:40:45;1.35;;;1.00;;
76939;SDS011;65885;55.848;35.916;2023-09-18T12:43:12;1.33;;;1.15;;
76939;SDS011;65885;55.848;35.916;2023-09-18T12:45:42;1.85;;;1.30;;
76939;SDS011;65885;55.848;35.916;2023-09-18T12:48:11;2.67;;;1.00;;
76939;SDS011;65885;55.848;35.916;2023-09-18T12:50:40;1.90;;;1.33;;
76939;SDS011;65885;55.848;35.916;2023-09-18T12:53:08;3.00;;;1.40;;
76939;SDS011;65885;55.848;35.916;2023-09-18T12:55:39;2.75;;;1.15;;
76939;SDS011;65885;55.848;35.916;2023-09-18T12:58:10;1.52;;;1.20;;
76939;SDS011;65885;55.848;35.916;2023-09-18T13:00:44;3.55;;;1.13;;
76939;SDS011;65885;55.848;35.916;2023-09-18T13:03:15;1.50;;;1.30;;
76939;SDS011;65885;55.848;35.916;2023-09-18T13:05:42;2.15;;;1.42;;
76939;SDS011;65885;55.848;35.916;2023-09-18T13:08:12;2.22;;;1.60;;
76939;SDS011;65885;55.848;35.916;2023-09-18T13:10:45;1.77;;;1.42;;
76939;SDS011;65885;55.848;35.916;2023-09-18T13:13:18;1.60;;;1.20;;
76939;SDS011;65885;55.848;35.916;2023-09-18T13:15:48;1.42;;;1.20;;
76939;SDS011;65885;55.848;35.916;2023-09-18T13:18:16;1.83;;;1.20;;
76939;SDS011;65885;55.848;35.916;2023-09-18T13:20:44;1.60;;;1.50;;
76939;SDS011;65885;55.848;35.916;2023-09-18T13:23:12;1.55;;;1.40;;
76939;SDS011;65885;55.848;35.916;2023-09-18T13:25:39;1.98;;;1.67;;
76939;SDS011;65885;55.848;35.916;2023-09-18T13:28:12;2.38;;;1.85;;
76939;SDS011;65885;55.848;35.916;2023-09-18T13:30:40;3.00;;;2.03;;
76939;SDS011;65885;55.848;35.916;2023-09-18T13:33:09;1.88;;;1.40;;
76939;SDS011;65885;55.848;35.916;2023-09-18T13:35:39;2.30;;;1.60;;
76939;SDS011;65885;55.848;35.916;2023-09-18T13:38:08;3.00;;;2.03;;
76939;SDS011;65885;55.848;35.916;2023-09-18T13:40:36;2.58;;;1.83;;
76939;SDS011;65885;55.848;35.916;2023-09-18T13:43:05;4.10;;;2.40;;
76939;SDS011;65885;55.848;35.916;2023-09-18T13:45:34;2.72;;;2.30;;
76939;SDS011;65885;55.848;35.916;2023-09-18T13:48:02;3.53;;;2.55;;
76939;SDS011;65885;55.848;35.916;2023-09-18T13:50:30;2.50;;;1.90;;
76939;SDS011;65885;55.848;35.916;2023-09-18T13:52:58;2.53;;;2.20;;
76939;SDS011;65885;55.848;35.916;2023-09-18T13:55:26;3.15;;;2.20;;
76939;SDS011;65885;55.848;35.916;2023-09-18T13:57:54;3.72;;;2.20;;
76939;SDS011;65885;55.848;35.916;2023-09-18T14:00:21;4.43;;;2.15;;
76939;SDS011;65885;55.848;35.916;2023-09-18T14:02:52;3.35;;;2.40;;
76939;SDS011;65885;55.848;35.916;2023-09-18T14:05:20;6.40;;;2.50;;
76939;SDS011;65885;55.848;35.916;2023-09-18T14:07:48;3.38;;;2.28;;
76939;SDS011;65885;55.848;35.916;2023-09-18T14:10:15;3.15;;;2.13;;
76939;SDS011;65885;55.848;35.916;2023-09-18T14:15:15;3.40;;;2.40;;
76939;SDS011;65885;55.848;35.916;2023-09-18T14:17:44;3.22;;;2.08;;
76939;SDS011;65885;55.848;35.916;2023-09-18T14:20:13;2.30;;;1.80;;
76939;SDS011;65885;55.848;35.916;2023-09-18T14:22:44;2.13;;;1.80;;
76939;SDS011;65885;55.848;35.916;2023-09-18T14:25:15;4.15;;;2.60;;
76939;SDS011;65885;55.848;35.916;2023-09-18T14:27:43;4.38;;;2.03;;
76939;SDS011;65885;55.848;35.916;2023-09-18T14:30:10;2.45;;;2.00;;
76939;SDS011;65885;55.848;35.916;2023-09-18T14:32:39;2.85;;;2.08;;
76939;SDS011;65885;55.848;35.916;2023-09-18T14:35:07;3.58;;;2.20;;
76939;SDS011;65885;55.848;35.916;2023-09-18T14:37:37;2.83;;;2.20;;
76939;SDS011;65885;55.848;35.916;2023-09-18T14:40:05;2.67;;;2.25;;
76939;SDS011;65885;55.848;35.916;2023-09-18T14:42:37;2.75;;;1.90;;
76939;SDS011;65885;55.848;35.916;2023-09-18T14:45:05;3.90;;;1.67;;
76939;SDS011;65885;55.848;35.916;2023-09-18T14:47:33;2.97;;;2.05;;
76939;SDS011;65885;55.848;35.916;2023-09-18T14:50:00;3.17;;;1.67;;
76939;SDS011;65885;55.848;35.916;2023-09-18T14:52:31;2.17;;;1.70;;
76939;SDS011;65885;55.848;35.916;2023-09-18T14:55:00;3.47;;;1.90;;
76939;SDS011;65885;55.848;35.916;2023-09-18T14:57:31;2.53;;;1.83;;
76939;SDS011;65885;55.848;35.916;2023-09-18T14:59:58;2.55;;;1.92;;